createdAt,value
2022-11-20T00:01:28.591Z,90.17
2022-11-20T00:03:58.909Z,90.57
2022-11-20T00:06:28.397Z,89.61
2022-11-20T00:08:58.010Z,89.88
2022-11-20T00:11:27.434Z,90.81
2022-11-20T00:14:00.920Z,89.92
2022-11-20T00:16:31.920Z,90.44
2022-11-20T00:19:00.209Z,91.89
2022-11-20T00:21:29.194Z,93.45
2022-11-20T00:23:58.024Z,93.70
2022-11-20T00:26:27.330Z,92.90
2022-11-20T00:28:57.793Z,92.93
2022-11-20T00:31:26.175Z,92.77
2022-11-20T00:33:54.496Z,91.82
2022-11-20T00:36:24.955Z,91.93
2022-11-20T00:39:02.849Z,92.06
2022-11-20T00:41:31.413Z,91.61
2022-11-20T00:43:59.672Z,91.39
2022-11-20T00:46:28.835Z,91.73
2022-11-20T00:48:57.114Z,92.43
2022-11-20T00:51:26.828Z,92.50
2022-11-20T00:53:59.009Z,92.39
2022-11-20T00:56:27.250Z,93.03
2022-11-20T00:58:55.972Z,92.87
2022-11-20T01:01:26.686Z,93.47
2022-11-20T01:03:56.248Z,93.65
2022-11-20T01:06:29.593Z,93.08
2022-11-20T01:08:59.604Z,92.70
2022-11-20T01:11:33.555Z,92.96
2022-11-20T01:14:03.240Z,94.03
2022-11-20T01:16:37.257Z,94.31
2022-11-20T01:19:07.608Z,94.42
2022-11-20T01:21:38.387Z,94.62
2022-11-20T01:24:09.068Z,94.29
2022-11-20T01:26:39.058Z,93.71
2022-11-20T01:29:08.606Z,93.77
2022-11-20T01:31:38.045Z,93.44
2022-11-20T01:34:14.704Z,94.01
2022-11-20T01:36:43.661Z,94.50
2022-11-20T01:39:14.567Z,94.76
2022-11-20T01:42:05.714Z,94.73
2022-11-20T01:44:58.350Z,94.30
2022-11-20T01:47:35.710Z,93.64
2022-11-20T01:50:27.660Z,94.10
2022-11-20T01:52:56.726Z,94.18
2022-11-20T01:55:28.796Z,94.75
2022-11-20T01:57:57.303Z,94.96
2022-11-20T02:00:25.580Z,94.59
2022-11-20T02:03:03.810Z,94.55
2022-11-20T02:05:57.029Z,95.30
2022-11-20T02:08:25.526Z,95.18
2022-11-20T02:10:53.750Z,95.07
2022-11-20T02:13:40.449Z,94.81
2022-11-20T02:16:18.254Z,94.41
2022-11-20T02:18:47.065Z,94.39
2022-11-20T02:21:27.294Z,94.30
2022-11-20T02:24:01.662Z,94.96
2022-11-20T02:26:32.187Z,95.08
2022-11-20T02:29:01.892Z,95.36
2022-11-20T02:31:30.122Z,95.79
2022-11-20T02:33:59.221Z,95.55
2022-11-20T02:36:29.376Z,95.04
2022-11-20T02:38:57.618Z,95.16
2022-11-20T02:41:36.498Z,95.53
2022-11-20T02:44:05.495Z,95.39
2022-11-20T02:46:33.978Z,95.22
2022-11-20T02:49:03.936Z,95.37
2022-11-20T02:51:32.855Z,95.32
2022-11-20T02:54:01.153Z,95.08
2022-11-20T02:56:29.389Z,95.52
2022-11-20T02:58:57.571Z,95.50
2022-11-20T03:01:25.722Z,95.43
2022-11-20T03:03:55.686Z,95.35
2022-11-20T03:06:23.911Z,95.57
2022-11-20T03:08:52.065Z,95.59
2022-11-20T03:11:21.171Z,95.59
2022-11-20T03:13:49.302Z,95.86
2022-11-20T03:16:20.510Z,95.73
2022-11-20T03:18:49.161Z,95.61
2022-11-20T03:21:17.662Z,95.82
2022-11-20T03:23:46.000Z,95.73
2022-11-20T03:26:21.523Z,96.09
2022-11-20T03:28:51.761Z,96.30
2022-11-20T03:31:22.529Z,96.04
2022-11-20T03:33:51.041Z,95.95
2022-11-20T03:36:20.528Z,95.62
2022-11-20T03:38:49.306Z,95.83
2022-11-20T03:41:25.286Z,95.84
2022-11-20T03:43:58.786Z,95.79
2022-11-20T03:46:28.550Z,96.11
2022-11-20T03:48:57.218Z,96.42
2022-11-20T03:51:27.536Z,96.08
2022-11-20T03:53:58.309Z,96.00
2022-11-20T03:56:29.152Z,95.80
2022-11-20T03:58:57.591Z,95.98
2022-11-20T04:01:28.097Z,95.78
2022-11-20T04:03:57.738Z,95.83
2022-11-20T04:06:30.949Z,96.66
2022-11-20T04:08:59.706Z,97.35
2022-11-20T04:11:30.093Z,97.34
2022-11-20T04:14:00.784Z,98.21
2022-11-20T04:16:36.988Z,97.93
2022-11-20T04:19:07.350Z,98.16
2022-11-20T04:21:35.750Z,97.68
2022-11-20T04:24:04.237Z,97.03
2022-11-20T04:26:32.620Z,97.39
2022-11-20T04:29:02.849Z,97.45
2022-11-20T04:31:33.775Z,97.39
2022-11-20T04:34:03.240Z,97.32
2022-11-20T04:36:31.554Z,97.13
2022-11-20T04:39:02.389Z,96.73
2022-11-20T04:41:32.828Z,97.02
2022-11-20T04:44:04.370Z,96.85
2022-11-20T04:46:34.940Z,96.96
2022-11-20T04:49:03.227Z,97.08
2022-11-20T04:51:31.505Z,97.39
2022-11-20T04:54:00.040Z,98.13
2022-11-20T04:56:28.243Z,98.11
2022-11-20T04:58:56.463Z,97.93
2022-11-20T05:01:25.881Z,97.47
2022-11-20T05:03:54.385Z,98.04
2022-11-20T05:06:23.911Z,97.93
2022-11-20T05:08:52.296Z,97.93
2022-11-20T05:11:21.856Z,97.86
2022-11-20T05:13:51.713Z,98.26
2022-11-20T05:16:23.196Z,99.02
2022-11-20T05:18:52.943Z,98.83
2022-11-20T05:21:21.647Z,99.36
2022-11-20T05:23:49.976Z,99.90
2022-11-20T05:26:22.961Z,99.80
2022-11-20T05:28:52.201Z,99.02
2022-11-20T05:31:27.762Z,96.56
2022-11-20T05:33:57.956Z,98.08
2022-11-20T05:36:26.367Z,100.00
2022-11-20T05:39:00.911Z,99.47
2022-11-20T05:41:30.525Z,99.73
2022-11-20T05:43:59.948Z,99.25
2022-11-20T05:46:29.517Z,98.76
2022-11-20T05:48:58.939Z,98.89
2022-11-20T05:51:28.271Z,98.16
2022-11-20T05:53:59.849Z,98.29
2022-11-20T05:56:28.165Z,98.55
2022-11-20T05:58:57.347Z,99.46
2022-11-20T06:01:26.604Z,99.19
2022-11-20T06:03:55.391Z,98.24
2022-11-20T06:06:23.869Z,96.72
2022-11-20T06:08:52.086Z,95.44
2022-11-20T06:11:20.368Z,95.49
2022-11-20T06:13:48.764Z,96.41
2022-11-20T06:16:19.764Z,98.40
2022-11-20T06:18:48.437Z,99.02
2022-11-20T06:21:18.823Z,99.55
2022-11-20T06:23:47.512Z,99.31
2022-11-20T06:26:18.294Z,99.79
2022-11-20T06:28:47.094Z,99.72
2022-11-20T06:31:16.791Z,99.77
2022-11-20T06:33:45.404Z,99.97
2022-11-20T06:36:15.170Z,100.00
2022-11-20T06:38:43.703Z,100.00
2022-11-20T06:41:14.310Z,100.00
2022-11-20T06:43:42.817Z,100.00
2022-11-20T06:46:12.774Z,100.00
2022-11-20T06:48:41.483Z,99.97
2022-11-20T06:51:10.097Z,99.83
2022-11-20T06:53:38.632Z,99.97
2022-11-20T06:56:07.978Z,99.72
2022-11-20T06:58:37.030Z,99.82
2022-11-20T07:01:11.970Z,99.45
2022-11-20T07:03:40.765Z,99.06
2022-11-20T07:06:09.301Z,99.39
2022-11-20T07:08:37.552Z,99.67
2022-11-20T07:11:07.613Z,99.81
2022-11-20T07:13:36.127Z,99.45
2022-11-20T07:16:07.517Z,99.03
2022-11-20T07:18:36.505Z,99.22
2022-11-20T07:21:09.434Z,98.91
2022-11-20T07:23:37.912Z,99.22
2022-11-20T07:26:07.668Z,98.98
2022-11-20T07:28:36.444Z,99.05
2022-11-20T07:31:06.077Z,99.16
2022-11-20T07:33:34.314Z,98.19
2022-11-20T07:36:02.689Z,97.60
2022-11-20T07:38:31.028Z,98.32
2022-11-20T07:40:59.159Z,98.61
2022-11-20T07:43:27.370Z,99.41
2022-11-20T07:45:59.445Z,99.93
2022-11-20T07:48:27.815Z,99.75
2022-11-20T07:50:59.202Z,98.70
2022-11-20T07:53:27.389Z,98.54
2022-11-20T07:55:55.756Z,98.19
2022-11-20T07:58:23.980Z,98.20
2022-11-20T08:00:52.254Z,98.38
2022-11-20T08:03:24.983Z,98.10
2022-11-20T08:05:53.982Z,97.93
2022-11-20T08:08:24.039Z,98.84
2022-11-20T08:10:52.501Z,98.85
2022-11-20T08:13:38.853Z,98.43
2022-11-20T08:16:07.265Z,98.60
2022-11-20T08:18:35.451Z,98.69
2022-11-20T08:21:05.156Z,98.40
2022-11-20T08:23:33.334Z,98.14
2022-11-20T08:26:01.538Z,97.99
2022-11-20T08:28:29.665Z,98.19
2022-11-20T08:31:01.929Z,98.88
2022-11-20T08:33:30.830Z,99.54
2022-11-20T08:36:05.177Z,99.69
2022-11-20T08:38:33.836Z,99.37
2022-11-20T08:41:22.045Z,99.33
2022-11-20T08:43:50.823Z,99.76
2022-11-20T08:46:19.413Z,99.87
2022-11-20T08:48:47.735Z,99.57
2022-11-20T08:51:16.212Z,99.62
2022-11-20T08:53:44.597Z,99.79
2022-11-20T08:56:14.280Z,99.40
2022-11-20T08:59:16.023Z,99.20
2022-11-20T09:01:31.006Z,99.83
2022-11-20T09:04:00.629Z,99.95
2022-11-20T09:06:28.815Z,99.38
2022-11-20T09:09:00.711Z,97.25
2022-11-20T09:11:31.774Z,97.32
2022-11-20T09:13:59.926Z,97.12
2022-11-20T09:16:28.108Z,96.97
2022-11-20T09:19:13.479Z,97.38
2022-11-20T09:21:44.433Z,97.74
2022-11-20T09:24:12.654Z,98.72
2022-11-20T09:26:40.824Z,98.35
2022-11-20T09:29:09.039Z,98.14
2022-11-20T09:31:37.414Z,97.64
2022-11-20T09:34:05.899Z,98.08
2022-11-20T09:36:34.080Z,97.60
2022-11-20T09:39:02.300Z,97.61
2022-11-20T09:41:48.969Z,98.66
2022-11-20T09:44:28.668Z,98.06
2022-11-20T09:47:04.525Z,98.40
2022-11-20T09:49:51.735Z,97.69
2022-11-20T09:52:38.159Z,98.26
2022-11-20T09:55:10.400Z,98.09
2022-11-20T09:57:42.053Z,97.35
2022-11-20T10:00:15.052Z,97.37
2022-11-20T10:03:08.791Z,97.95
2022-11-20T10:05:42.301Z,97.91
2022-11-20T10:08:31.498Z,98.27
2022-11-20T10:11:19.249Z,98.77
2022-11-20T10:13:59.131Z,98.58
2022-11-20T10:16:41.372Z,97.59
2022-11-20T10:19:22.072Z,96.92
2022-11-20T10:22:21.124Z,97.82
2022-11-20T10:25:06.965Z,98.67
2022-11-20T10:27:57.459Z,99.27
2022-11-20T10:30:26.472Z,97.95
2022-11-20T10:33:05.171Z,98.43
2022-11-20T10:35:45.450Z,98.54
2022-11-20T10:38:20.389Z,98.70
2022-11-20T10:41:21.499Z,99.08
2022-11-20T10:43:51.986Z,98.36
2022-11-20T10:46:25.581Z,98.72
2022-11-20T10:48:53.775Z,99.11
2022-11-20T10:51:41.061Z,98.93
2022-11-20T10:54:32.409Z,98.43
2022-11-20T10:57:11.399Z,98.26
2022-11-20T10:59:45.438Z,97.95
2022-11-20T11:02:21.993Z,96.49
2022-11-20T11:04:52.228Z,97.15
2022-11-20T11:07:37.969Z,97.70
2022-11-20T11:10:29.136Z,98.15
2022-11-20T11:12:57.409Z,98.84
2022-11-20T11:15:41.784Z,98.58
2022-11-20T11:18:11.111Z,96.76
2022-11-20T11:20:39.525Z,96.39
2022-11-20T11:23:27.679Z,95.58
2022-11-20T11:26:00.491Z,95.08
2022-11-20T11:28:29.485Z,97.72
2022-11-20T11:30:57.761Z,98.79
2022-11-20T11:33:28.309Z,99.00
2022-11-20T11:35:59.355Z,95.97
2022-11-20T11:38:42.109Z,95.70
2022-11-20T11:41:17.696Z,98.65
2022-11-20T11:44:16.216Z,100.00
2022-11-20T11:47:03.505Z,100.00
2022-11-20T11:49:31.660Z,99.58
2022-11-20T11:52:08.840Z,97.84
2022-11-20T11:54:41.934Z,97.86
2022-11-20T11:57:24.325Z,96.83
2022-11-20T12:00:15.632Z,97.88
2022-11-20T12:02:46.777Z,94.85
2022-11-20T12:06:01.454Z,94.86
2022-11-20T12:08:39.398Z,93.80
2022-11-20T12:11:21.082Z,95.85
2022-11-20T12:13:56.912Z,98.06
2022-11-20T12:16:25.550Z,98.63
2022-11-20T12:18:54.210Z,99.44
2022-11-20T12:22:07.499Z,97.47
2022-11-20T12:25:01.770Z,94.46
2022-11-20T12:27:50.792Z,96.69
2022-11-20T12:30:20.381Z,97.47
2022-11-20T12:33:25.745Z,95.32
2022-11-20T12:36:29.979Z,96.28
2022-11-20T12:38:58.089Z,96.40
2022-11-20T12:42:03.706Z,96.69
2022-11-20T12:44:56.429Z,96.87
2022-11-20T12:47:46.832Z,95.62
2022-11-20T12:51:07.932Z,96.45
2022-11-20T12:53:45.915Z,96.41
2022-11-20T12:56:29.089Z,97.15
2022-11-20T12:59:09.075Z,95.63
2022-11-20T13:01:43.785Z,97.16
2022-11-20T13:04:45.514Z,97.46
2022-11-20T13:07:15.604Z,97.62
2022-11-20T13:09:49.784Z,97.95
2022-11-20T13:12:20.333Z,97.49
2022-11-20T13:14:58.177Z,98.30
2022-11-20T13:17:38.179Z,98.57
2022-11-20T13:20:13.300Z,98.44
2022-11-20T13:22:46.941Z,99.39
2022-11-20T13:25:34.775Z,98.53
2022-11-20T13:28:12.648Z,95.85
2022-11-20T13:30:51.331Z,96.49
2022-11-20T13:33:30.660Z,96.63
2022-11-20T13:36:04.638Z,96.99
2022-11-20T13:39:02.297Z,96.26
2022-11-20T13:41:36.652Z,97.18
2022-11-20T13:44:14.062Z,96.48
2022-11-20T13:46:46.906Z,97.99
2022-11-20T13:49:26.271Z,98.08
2022-11-20T13:52:04.576Z,98.34
2022-11-20T13:54:53.840Z,96.85
2022-11-20T13:57:27.886Z,94.17
2022-11-20T14:00:11.548Z,93.58
2022-11-20T14:02:39.868Z,94.26
2022-11-20T14:05:19.725Z,94.06
2022-11-20T14:07:48.745Z,97.55
2022-11-20T14:10:34.974Z,94.91
2022-11-20T14:13:18.724Z,94.86
2022-11-20T14:15:47.122Z,98.17
2022-11-20T14:18:25.258Z,96.46
2022-11-20T14:20:53.468Z,97.60
2022-11-20T14:23:30.085Z,97.73
2022-11-20T14:25:58.832Z,97.71
2022-11-20T14:28:29.552Z,96.18
2022-11-20T14:30:58.531Z,94.68
2022-11-20T14:33:28.043Z,96.14
2022-11-20T14:35:58.509Z,96.34
2022-11-20T14:38:28.877Z,96.08
2022-11-20T14:41:10.113Z,95.59
2022-11-20T14:43:38.974Z,95.44
2022-11-20T14:46:09.417Z,94.15
2022-11-20T14:48:48.045Z,95.41
2022-11-20T14:51:42.435Z,95.38
2022-11-20T14:54:24.859Z,96.20
2022-11-20T14:57:01.320Z,97.89
2022-11-20T14:59:34.928Z,97.86
2022-11-20T15:02:13.187Z,97.63
2022-11-20T15:04:52.266Z,98.82
2022-11-20T15:07:32.376Z,99.16
2022-11-20T15:10:14.465Z,98.21
2022-11-20T15:12:49.938Z,99.06
2022-11-20T15:15:31.762Z,99.98
2022-11-20T15:18:00.339Z,99.64
2022-11-20T15:20:31.503Z,99.73
2022-11-20T15:22:59.786Z,99.77
2022-11-20T15:25:29.312Z,99.88
2022-11-20T15:27:57.905Z,99.42
2022-11-20T15:30:26.360Z,96.55
2022-11-20T15:32:54.501Z,96.07
2022-11-20T15:35:22.705Z,96.27
2022-11-20T15:37:50.848Z,98.32
2022-11-20T15:40:19.159Z,98.30
2022-11-20T15:43:06.790Z,98.35
2022-11-20T15:45:38.672Z,99.34
2022-11-20T15:48:12.572Z,97.65
2022-11-20T15:51:07.869Z,98.78
2022-11-20T15:53:36.081Z,99.15
2022-11-20T15:56:04.601Z,99.74
2022-11-20T15:58:32.901Z,99.81
2022-11-20T16:01:01.217Z,100.00
2022-11-20T16:03:29.422Z,98.97
2022-11-20T16:05:57.610Z,98.39
2022-11-20T16:08:25.738Z,99.80
2022-11-20T16:10:53.889Z,100.00
2022-11-20T16:13:40.854Z,100.00
2022-11-20T16:16:20.237Z,99.98
2022-11-20T16:18:48.578Z,100.00
2022-11-20T16:21:17.265Z,99.86
2022-11-20T16:23:45.505Z,97.83
2022-11-20T16:26:21.799Z,98.03
2022-11-20T16:28:50.122Z,95.95
2022-11-20T16:31:19.864Z,98.66
2022-11-20T16:33:55.948Z,99.44
2022-11-20T16:36:26.307Z,99.90
2022-11-20T16:38:59.355Z,99.93
2022-11-20T16:41:29.090Z,99.99
2022-11-20T16:43:58.843Z,98.12
2022-11-20T16:46:29.518Z,97.00
2022-11-20T16:48:58.629Z,97.63
2022-11-20T16:51:28.228Z,99.69
2022-11-20T16:53:56.884Z,100.00
2022-11-20T16:56:26.684Z,100.00
2022-11-20T16:58:57.730Z,99.85
2022-11-20T17:01:28.833Z,98.57
2022-11-20T17:04:01.389Z,98.88
2022-11-20T17:06:31.793Z,97.35
2022-11-20T17:09:00.113Z,99.08
2022-11-20T17:11:28.438Z,99.70
2022-11-20T17:13:57.785Z,99.32
2022-11-20T17:16:26.138Z,98.09
2022-11-20T17:18:59.766Z,97.80
2022-11-20T17:21:32.639Z,97.92
2022-11-20T17:24:04.871Z,98.97
2022-11-20T17:26:33.680Z,99.73
2022-11-20T17:29:05.326Z,99.81
2022-11-20T17:31:34.491Z,99.77
2022-11-20T17:34:02.710Z,98.89
2022-11-20T17:36:31.124Z,99.83
2022-11-20T17:38:59.846Z,97.81
2022-11-20T17:41:29.264Z,97.96
2022-11-20T17:43:59.298Z,98.01
2022-11-20T17:46:30.013Z,99.09
2022-11-20T17:48:58.596Z,99.92
2022-11-20T17:51:28.920Z,99.46
2022-11-20T17:54:00.832Z,99.95
2022-11-20T17:56:51.733Z,100.00
2022-11-20T17:59:20.236Z,99.20
2022-11-20T18:01:48.704Z,99.37
2022-11-20T18:04:17.142Z,99.97
2022-11-20T18:06:45.530Z,99.97
2022-11-20T18:09:13.997Z,100.00
2022-11-20T18:11:42.958Z,100.00
2022-11-20T18:14:32.644Z,100.00
2022-11-20T18:17:11.842Z,99.67
2022-11-20T18:19:51.593Z,99.62
2022-11-20T18:22:30.829Z,100.00
2022-11-20T18:24:59.113Z,100.00
2022-11-20T18:27:27.281Z,100.00
2022-11-20T18:29:55.463Z,99.76
2022-11-20T18:32:24.105Z,100.00
2022-11-20T18:34:52.446Z,100.00
2022-11-20T18:37:20.628Z,99.90
2022-11-20T18:39:50.580Z,99.72
2022-11-20T18:42:37.514Z,99.89
2022-11-20T18:45:06.598Z,100.00
2022-11-20T18:47:38.089Z,100.00
2022-11-20T18:50:08.558Z,99.29
2022-11-20T18:52:42.052Z,99.96
2022-11-20T18:55:11.202Z,100.00
2022-11-20T18:57:39.353Z,100.00
2022-11-20T19:00:11.508Z,100.00
2022-11-20T19:02:43.562Z,99.50
2022-11-20T19:05:13.050Z,100.00
2022-11-20T19:07:41.962Z,100.00
2022-11-20T19:10:10.245Z,100.00
2022-11-20T19:12:38.680Z,99.11
2022-11-20T19:15:07.384Z,98.73
2022-11-20T19:17:35.594Z,99.29
2022-11-20T19:20:03.973Z,98.84
2022-11-20T19:22:32.133Z,98.21
2022-11-20T19:25:00.254Z,99.01
2022-11-20T19:27:28.426Z,99.14
2022-11-20T19:30:03.284Z,99.75
2022-11-20T19:32:32.748Z,100.00
2022-11-20T19:35:01.320Z,100.00
2022-11-20T19:37:32.167Z,99.94
2022-11-20T19:40:04.398Z,99.96
2022-11-20T19:42:32.673Z,100.00
2022-11-20T19:45:00.926Z,99.91
2022-11-20T19:47:46.379Z,99.81
2022-11-20T19:50:17.331Z,100.00
2022-11-20T19:52:45.513Z,99.94
2022-11-20T19:55:13.706Z,100.00
2022-11-20T19:57:41.905Z,100.00
2022-11-20T20:00:10.906Z,100.00
2022-11-20T20:02:39.129Z,100.00
2022-11-20T20:05:07.584Z,100.00
2022-11-20T20:07:35.782Z,100.00
2022-11-20T20:10:04.296Z,100.00
2022-11-20T20:12:32.571Z,100.00
2022-11-20T20:15:00.837Z,100.00
2022-11-20T20:17:29.066Z,100.00
2022-11-20T20:19:57.162Z,100.00
2022-11-20T20:22:25.454Z,99.71
2022-11-20T20:24:53.672Z,99.45
2022-11-20T20:27:21.842Z,99.51
2022-11-20T20:29:50.134Z,99.13
2022-11-20T20:32:18.287Z,99.31
2022-11-20T20:34:46.467Z,99.31
2022-11-20T20:37:14.614Z,99.89
2022-11-20T20:39:42.783Z,99.19
2022-11-20T20:42:10.932Z,99.59
2022-11-20T20:44:57.644Z,99.80
2022-11-20T20:47:31.483Z,100.00
2022-11-20T20:49:59.817Z,99.80
2022-11-20T20:52:28.093Z,98.97
2022-11-20T20:54:56.455Z,99.62
2022-11-20T20:57:25.064Z,99.95
2022-11-20T20:59:53.230Z,100.00
2022-11-20T21:02:22.927Z,100.00
2022-11-20T21:04:51.468Z,100.00
2022-11-20T21:07:19.649Z,99.78
2022-11-20T21:09:47.820Z,99.65
2022-11-20T21:12:21.055Z,100.00
2022-11-20T21:14:56.606Z,100.00
2022-11-20T21:17:30.636Z,100.00
2022-11-20T21:19:59.238Z,100.00
2022-11-20T21:22:36.244Z,100.00
2022-11-20T21:25:05.176Z,100.00
2022-11-20T21:27:33.440Z,100.00
2022-11-20T21:30:01.594Z,100.00
2022-11-20T21:32:30.327Z,100.00
2022-11-20T21:34:58.508Z,100.00
2022-11-20T21:37:26.986Z,100.00
2022-11-20T21:39:55.173Z,100.00
2022-11-20T21:42:23.679Z,100.00
2022-11-20T21:44:51.863Z,100.00
2022-11-20T21:47:20.127Z,99.91
2022-11-20T21:49:48.448Z,99.54
2022-11-20T21:52:16.743Z,99.83
2022-11-20T21:54:44.911Z,99.38
2022-11-20T21:57:13.072Z,99.12
2022-11-20T21:59:41.277Z,99.05
2022-11-20T22:02:12.711Z,98.16
2022-11-20T22:04:41.811Z,99.65
2022-11-20T22:07:10.060Z,100.00
2022-11-20T22:09:38.300Z,100.00
2022-11-20T22:12:06.639Z,100.00
2022-11-20T22:14:34.932Z,100.00
2022-11-20T22:17:03.191Z,100.00
2022-11-20T22:19:31.415Z,100.00
2022-11-20T22:21:59.583Z,99.68
2022-11-20T22:24:28.012Z,99.58
2022-11-20T22:26:56.440Z,100.00
2022-11-20T22:29:24.675Z,100.00
2022-11-20T22:31:53.361Z,100.00
2022-11-20T22:34:22.217Z,100.00
2022-11-20T22:36:51.284Z,100.00
2022-11-20T22:39:19.460Z,99.27
2022-11-20T22:41:47.648Z,99.22
2022-11-20T22:44:16.525Z,99.33
2022-11-20T22:46:44.743Z,99.75
2022-11-20T22:49:13.006Z,99.95
2022-11-20T22:51:41.834Z,100.00
2022-11-20T22:54:13.579Z,99.94
2022-11-20T22:56:41.916Z,99.43
2022-11-20T22:59:10.281Z,99.24
2022-11-20T23:01:38.691Z,99.83
2022-11-20T23:04:10.117Z,99.96
2022-11-20T23:06:38.425Z,100.00
2022-11-20T23:09:07.515Z,99.86
2022-11-20T23:11:36.223Z,98.28
2022-11-20T23:14:13.014Z,99.27
2022-11-20T23:16:41.268Z,98.68
2022-11-20T23:19:12.208Z,98.42
2022-11-20T23:21:41.482Z,98.72
2022-11-20T23:24:10.129Z,99.19
2022-11-20T23:26:40.019Z,99.15
2022-11-20T23:29:08.419Z,99.83
2022-11-20T23:31:36.835Z,99.89
2022-11-20T23:34:05.050Z,99.32
2022-11-20T23:36:33.262Z,99.61
2022-11-20T23:39:01.527Z,99.97
2022-11-20T23:41:29.715Z,100.00
2022-11-20T23:43:57.964Z,100.00
2022-11-20T23:46:26.208Z,100.00
2022-11-20T23:48:54.393Z,100.00
2022-11-20T23:51:22.648Z,100.00
2022-11-20T23:53:50.828Z,100.00
2022-11-20T23:56:19.071Z,100.00
2022-11-20T23:58:47.292Z,100.00
